Time;durP1;ratioP1;P1;durP2;ratioP2;P2;SDS_P1;SDS_P2;PMS_P1;PMS_P2;Temp;Humidity;BMP_temperature;BMP_pressure;BME280_temperature;BME280_humidity;BME280_pressure;Samples;Min_cycle;Max_cycle;Signal;HPM_P1;HPM_P2
2023/06/02 00:01:08;;;;;;;1.58;0.90;;;;;;;;;;5043999;28;20037;-76
2023/06/02 00:03:36;;;;;;;0.80;0.70;;;;;;;;;;5047310;28;20032;-75
2023/06/02 00:06:03;;;;;;;1.13;1.02;;;;;;;;;;5045513;28;20049;-74
2023/06/02 00:08:31;;;;;;;1.83;0.80;;;;;;;;;;5042447;28;20447;-75
2023/06/02 00:10:57;;;;;;;2.67;0.93;;;;;;;;;;5040477;28;20056;-75
2023/06/02 00:13:23;;;;;;;0.70;0.52;;;;;;;;;;5035206;28;20041;-75
2023/06/02 00:15:49;;;;;;;1.33;1.00;;;;;;;;;;5045249;28;20488;-74
2023/06/02 00:18:15;;;;;;;1.80;0.68;;;;;;;;;;5036937;28;20116;-74
2023/06/02 00:20:42;;;;;;;0.82;0.70;;;;;;;;;;5043548;28;20029;-75
2023/06/02 00:23:08;;;;;;;1.55;0.98;;;;;;;;;;5035873;28;20116;-75
2023/06/02 00:25:35;;;;;;;0.60;0.60;;;;;;;;;;5043241;28;20017;-74
2023/06/02 00:28:01;;;;;;;3.88;0.70;;;;;;;;;;5046850;28;20021;-75
2023/06/02 00:30:30;;;;;;;1.00;0.90;;;;;;;;;;5047566;28;20025;-75
2023/06/02 00:32:56;;;;;;;0.65;0.65;;;;;;;;;;5046277;28;20555;-75
2023/06/02 00:35:22;;;;;;;2.88;0.93;;;;;;;;;;5041806;28;20120;-74
2023/06/02 00:37:48;;;;;;;1.30;0.90;;;;;;;;;;5045108;28;20519;-74
2023/06/02 00:40:14;;;;;;;1.45;0.95;;;;;;;;;;5042188;28;20029;-74
2023/06/02 00:42:40;;;;;;;3.35;0.85;;;;;;;;;;5036785;28;20034;-75
2023/06/02 00:45:07;;;;;;;0.63;0.63;;;;;;;;;;5033799;28;20053;-75
2023/06/02 00:47:33;;;;;;;1.02;0.73;;;;;;;;;;5033624;28;20028;-75
2023/06/02 00:49:59;;;;;;;0.85;0.70;;;;;;;;;;5046578;28;20020;-75
2023/06/02 00:52:25;;;;;;;1.42;0.60;;;;;;;;;;5045172;28;20033;-75
2023/06/02 00:54:51;;;;;;;1.05;0.70;;;;;;;;;;5042433;28;20016;-74
2023/06/02 00:57:17;;;;;;;1.95;1.02;;;;;;;;;;5049885;28;20080;-74
2023/06/02 00:59:44;;;;;;;1.27;0.80;;;;;;;;;;5036118;28;20075;-74
2023/06/02 01:02:11;;;;;;;1.10;0.90;;;;;;;;;;5037011;28;20033;-75
2023/06/02 01:04:40;;;;;;;1.10;0.55;;;;;;;;;;5045142;28;20053;-74
2023/06/02 01:07:07;;;;;;;0.98;0.90;;;;;;;;;;5046590;28;20076;-74
2023/06/02 01:09:33;;;;;;;0.70;0.60;;;;;;;;;;5040685;28;20029;-75
2023/06/02 01:11:59;;;;;;;2.58;1.20;;;;;;;;;;5036743;28;20039;-75
2023/06/02 01:14:25;;;;;;;1.85;1.00;;;;;;;;;;5032585;28;20036;-75
2023/06/02 01:16:52;;;;;;;1.27;0.85;;;;;;;;;;5033527;28;20030;-75
2023/06/02 01:19:21;;;;;;;0.52;0.52;;;;;;;;;;5039328;28;20029;-76
2023/06/02 01:21:57;;;;;;;0.88;0.70;;;;;;;;;;5030632;28;20026;-75
2023/06/02 01:24:30;;;;;;;1.50;0.73;;;;;;;;;;5042973;28;20028;-75
2023/06/02 01:26:58;;;;;;;0.70;0.55;;;;;;;;;;5036597;28;20026;-75
2023/06/02 01:29:24;;;;;;;1.80;0.88;;;;;;;;;;5048891;28;20109;-75
2023/06/02 01:31:53;;;;;;;2.65;0.70;;;;;;;;;;5043736;28;20017;-75
2023/06/02 01:34:22;;;;;;;0.70;0.50;;;;;;;;;;5048658;28;20029;-75
2023/06/02 01:36:51;;;;;;;1.77;0.70;;;;;;;;;;5047377;28;20025;-75
2023/06/02 01:39:17;;;;;;;0.82;0.60;;;;;;;;;;5046371;28;20118;-75
2023/06/02 01:41:45;;;;;;;2.30;0.70;;;;;;;;;;5042338;28;20112;-75
2023/06/02 01:44:11;;;;;;;1.40;1.20;;;;;;;;;;5033400;28;20036;-75
2023/06/02 01:46:39;;;;;;;1.17;0.75;;;;;;;;;;5044833;28;20094;-76
2023/06/02 01:49:13;;;;;;;2.80;1.15;;;;;;;;;;5042414;28;20037;-76
2023/06/02 01:51:38;;;;;;;2.80;0.73;;;;;;;;;;5045692;28;20059;-76
2023/06/02 01:54:05;;;;;;;1.02;0.65;;;;;;;;;;5045412;28;20490;-75
2023/06/02 01:56:30;;;;;;;2.75;0.70;;;;;;;;;;5049381;28;20112;-75
2023/06/02 01:58:57;;;;;;;1.02;0.80;;;;;;;;;;5039576;28;20025;-75
2023/06/02 02:01:24;;;;;;;2.60;1.20;;;;;;;;;;5041047;28;20116;-76
2023/06/02 02:03:50;;;;;;;0.88;0.70;;;;;;;;;;5043518;28;20462;-75
2023/06/02 02:06:17;;;;;;;1.95;1.13;;;;;;;;;;5034444;28;20094;-75
2023/06/02 02:08:44;;;;;;;1.63;0.70;;;;;;;;;;5041755;28;20488;-76
2023/06/02 02:11:10;;;;;;;3.15;1.23;;;;;;;;;;5045780;28;20032;-75
2023/06/02 02:13:36;;;;;;;0.90;0.75;;;;;;;;;;5045876;28;20480;-75
2023/06/02 02:16:02;;;;;;;1.55;0.85;;;;;;;;;;5046686;28;20055;-75
2023/06/02 02:18:28;;;;;;;0.65;0.50;;;;;;;;;;5047538;28;20035;-75
2023/06/02 02:20:54;;;;;;;2.17;0.70;;;;;;;;;;5030242;28;20338;-76
2023/06/02 02:23:20;;;;;;;1.88;0.65;;;;;;;;;;5040391;28;20513;-75
2023/06/02 02:25:46;;;;;;;2.95;1.00;;;;;;;;;;5038074;28;20025;-75
2023/06/02 02:28:12;;;;;;;0.43;0.40;;;;;;;;;;5047999;28;20056;-75
2023/06/02 02:30:38;;;;;;;0.73;0.47;;;;;;;;;;5040503;28;20028;-76
2023/06/02 02:33:12;;;;;;;2.05;0.88;;;;;;;;;;5041537;28;20025;-75
2023/06/02 02:35:38;;;;;;;1.00;0.70;;;;;;;;;;5045399;28;20029;-75
2023/06/02 02:38:05;;;;;;;1.67;1.13;;;;;;;;;;5045219;28;20025;-76
2023/06/02 02:40:31;;;;;;;1.77;0.50;;;;;;;;;;5044017;28;20025;-75
2023/06/02 02:42:57;;;;;;;3.58;0.90;;;;;;;;;;5031964;28;20033;-76
2023/06/02 02:45:23;;;;;;;2.45;1.35;;;;;;;;;;5047570;28;20025;-75
2023/06/02 02:47:49;;;;;;;2.30;0.88;;;;;;;;;;5046624;28;20071;-76
2023/06/02 02:50:15;;;;;;;0.73;0.73;;;;;;;;;;5041237;28;20079;-76
2023/06/02 02:52:41;;;;;;;1.25;0.70;;;;;;;;;;5037501;28;20215;-75
2023/06/02 02:55:07;;;;;;;1.23;0.85;;;;;;;;;;5046205;28;20025;-76
2023/06/02 02:57:33;;;;;;;0.70;0.70;;;;;;;;;;5034904;28;20026;-75
2023/06/02 02:59:59;;;;;;;2.90;0.73;;;;;;;;;;5044909;28;20027;-75
2023/06/02 03:02:25;;;;;;;1.27;0.70;;;;;;;;;;5045005;28;20095;-75
2023/06/02 03:04:51;;;;;;;1.35;1.13;;;;;;;;;;5042975;28;20028;-75
2023/06/02 03:07:18;;;;;;;0.82;0.65;;;;;;;;;;5045553;28;20150;-75
2023/06/02 03:09:44;;;;;;;0.50;0.50;;;;;;;;;;5039444;28;20169;-76
2023/06/02 03:12:10;;;;;;;1.15;0.98;;;;;;;;;;5035948;28;20021;-75
2023/06/02 03:14:36;;;;;;;0.68;0.68;;;;;;;;;;5050251;28;20510;-75
2023/06/02 03:17:02;;;;;;;1.45;0.93;;;;;;;;;;5052771;28;20572;-75
2023/06/02 03:19:28;;;;;;;2.10;0.50;;;;;;;;;;5046046;28;20558;-75
2023/06/02 03:21:57;;;;;;;0.50;0.50;;;;;;;;;;5046040;28;20072;-76
2023/06/02 03:24:24;;;;;;;2.72;1.08;;;;;;;;;;5045157;28;20071;-76
2023/06/02 03:26:51;;;;;;;2.00;0.93;;;;;;;;;;5045901;28;20029;-75
2023/06/02 03:29:17;;;;;;;0.60;0.50;;;;;;;;;;5045982;28;20025;-75
2023/06/02 03:31:43;;;;;;;1.08;0.52;;;;;;;;;;5047324;28;20033;-75
2023/06/02 03:34:09;;;;;;;3.80;0.80;;;;;;;;;;5039783;28;20035;-75
2023/06/02 03:36:36;;;;;;;3.00;0.70;;;;;;;;;;5052818;28;20048;-75
2023/06/02 03:39:04;;;;;;;3.55;0.70;;;;;;;;;;5051011;28;20033;-75
2023/06/02 03:41:40;;;;;;;1.90;0.77;;;;;;;;;;5038787;28;20032;-75
2023/06/02 03:44:06;;;;;;;2.72;1.00;;;;;;;;;;5036163;28;20238;-75
2023/06/02 03:46:32;;;;;;;0.70;0.70;;;;;;;;;;5035943;28;20017;-76
2023/06/02 03:49:05;;;;;;;2.08;0.77;;;;;;;;;;5049108;28;20040;-75
2023/06/02 03:51:31;;;;;;;1.00;0.85;;;;;;;;;;5042151;28;20025;-75
2023/06/02 03:53:56;;;;;;;0.80;0.68;;;;;;;;;;5039484;28;20025;-75
2023/06/02 03:56:23;;;;;;;0.65;0.57;;;;;;;;;;5035291;28;20086;-75
2023/06/02 03:58:49;;;;;;;2.17;0.80;;;;;;;;;;5040084;28;20044;-75
2023/06/02 04:01:16;;;;;;;1.98;1.00;;;;;;;;;;5038197;28;20064;-75
2023/06/02 04:03:45;;;;;;;0.90;0.65;;;;;;;;;;5040163;28;20032;-76
2023/06/02 04:06:11;;;;;;;0.60;0.60;;;;;;;;;;5042213;28;20567;-75
2023/06/02 04:08:37;;;;;;;4.50;0.82;;;;;;;;;;5046843;28;20036;-75
2023/06/02 04:11:03;;;;;;;0.60;0.50;;;;;;;;;;5040991;28;20078;-75
2023/06/02 04:13:29;;;;;;;1.35;0.65;;;;;;;;;;5040375;28;20029;-75
2023/06/02 04:15:55;;;;;;;1.02;0.85;;;;;;;;;;5038968;28;20027;-76
2023/06/02 04:18:21;;;;;;;1.17;0.73;;;;;;;;;;5055950;28;20516;-75
2023/06/02 04:20:47;;;;;;;0.80;0.80;;;;;;;;;;5035379;28;20030;-75
2023/06/02 04:23:14;;;;;;;0.98;0.70;;;;;;;;;;5030194;28;20183;-75
2023/06/02 04:25:40;;;;;;;0.50;0.50;;;;;;;;;;5057527;28;20020;-75
2023/06/02 04:28:07;;;;;;;0.80;0.80;;;;;;;;;;5043786;28;20036;-74
2023/06/02 04:30:36;;;;;;;1.00;0.80;;;;;;;;;;5044922;28;20033;-75
2023/06/02 04:33:03;;;;;;;1.17;0.68;;;;;;;;;;5043227;28;20025;-76
2023/06/02 04:35:29;;;;;;;1.88;0.85;;;;;;;;;;5038136;28;20326;-75
2023/06/02 04:37:55;;;;;;;1.60;0.73;;;;;;;;;;5040025;28;20132;-75
2023/06/02 04:40:21;;;;;;;2.20;0.68;;;;;;;;;;5029108;28;20749;-75
2023/06/02 04:42:47;;;;;;;1.10;1.00;;;;;;;;;;5026770;28;20060;-75
2023/06/02 04:45:16;;;;;;;5.80;0.98;;;;;;;;;;5038574;28;20099;-75
2023/06/02 04:47:42;;;;;;;0.60;0.60;;;;;;;;;;5042373;28;20017;-76
2023/06/02 04:50:09;;;;;;;7.57;0.85;;;;;;;;;;5046475;28;20025;-75
2023/06/02 04:52:35;;;;;;;2.03;0.85;;;;;;;;;;5042205;28;20024;-76
2023/06/02 04:55:01;;;;;;;2.28;0.60;;;;;;;;;;5042579;28;20017;-75
2023/06/02 04:57:27;;;;;;;0.65;0.50;;;;;;;;;;5048049;28;20032;-75
2023/06/02 04:59:53;;;;;;;1.45;0.75;;;;;;;;;;5047649;28;20211;-75
2023/06/02 05:02:19;;;;;;;0.70;0.65;;;;;;;;;;5037347;28;20048;-75
2023/06/02 05:04:45;;;;;;;2.10;0.70;;;;;;;;;;5043930;28;20056;-75
2023/06/02 05:07:11;;;;;;;2.58;1.00;;;;;;;;;;5047571;28;20049;-75
2023/06/02 05:09:37;;;;;;;1.65;1.00;;;;;;;;;;5035333;28;20029;-75
2023/06/02 05:12:03;;;;;;;1.38;0.40;;;;;;;;;;5040655;28;20025;-75
2023/06/02 05:14:29;;;;;;;1.50;0.73;;;;;;;;;;5043258;28;20040;-75
2023/06/02 05:16:55;;;;;;;4.28;1.02;;;;;;;;;;5041573;28;20784;-75
2023/06/02 05:19:21;;;;;;;3.17;1.20;;;;;;;;;;5032663;28;20108;-74
2023/06/02 05:21:47;;;;;;;0.68;0.68;;;;;;;;;;5034298;28;20060;-75
2023/06/02 05:24:13;;;;;;;1.10;0.60;;;;;;;;;;5041323;28;20021;-75
2023/06/02 05:26:39;;;;;;;0.75;0.60;;;;;;;;;;5041253;28;20032;-75
2023/06/02 05:29:05;;;;;;;0.63;0.55;;;;;;;;;;5046119;28;20032;-75
2023/06/02 05:31:31;;;;;;;1.08;0.80;;;;;;;;;;5037302;28;20094;-80
2023/06/02 05:33:57;;;;;;;3.30;1.17;;;;;;;;;;5032150;28;20038;-79
2023/06/02 05:36:23;;;;;;;1.10;0.70;;;;;;;;;;5031287;28;20033;-79
2023/06/02 05:38:49;;;;;;;3.08;1.20;;;;;;;;;;5036668;28;20025;-78
2023/06/02 05:41:15;;;;;;;5.70;1.92;;;;;;;;;;5046444;28;20403;-84
2023/06/02 05:43:41;;;;;;;1.02;0.60;;;;;;;;;;5039936;28;20032;-78
2023/06/02 05:46:10;;;;;;;2.05;0.90;;;;;;;;;;5044113;28;20025;-79
2023/06/02 05:48:36;;;;;;;1.20;0.80;;;;;;;;;;5034082;28;20022;-78
2023/06/02 05:51:02;;;;;;;1.90;0.90;;;;;;;;;;5043304;28;20025;-79
2023/06/02 05:53:28;;;;;;;4.63;0.85;;;;;;;;;;5064813;28;20479;-76
2023/06/02 05:55:54;;;;;;;1.27;0.80;;;;;;;;;;5046481;28;20036;-77
2023/06/02 05:58:20;;;;;;;1.52;0.63;;;;;;;;;;5062813;28;20550;-75
2023/06/02 06:00:46;;;;;;;1.80;0.88;;;;;;;;;;5029241;28;20029;-78
2023/06/02 06:03:14;;;;;;;1.35;0.73;;;;;;;;;;5034431;28;20024;-77
2023/06/02 06:05:40;;;;;;;1.45;1.10;;;;;;;;;;5042734;28;20516;-78
2023/06/02 06:08:06;;;;;;;1.58;0.90;;;;;;;;;;5040479;28;20036;-77
2023/06/02 06:10:32;;;;;;;1.13;0.85;;;;;;;;;;5040793;28;20025;-78
2023/06/02 06:12:58;;;;;;;3.25;1.50;;;;;;;;;;5041540;28;20495;-78
2023/06/02 06:15:24;;;;;;;2.63;0.73;;;;;;;;;;5044347;28;20190;-78
2023/06/02 06:17:51;;;;;;;2.00;0.50;;;;;;;;;;5048156;28;20056;-78
2023/06/02 06:20:17;;;;;;;1.63;0.60;;;;;;;;;;5040998;28;20539;-78
2023/06/02 06:22:44;;;;;;;13.60;0.85;;;;;;;;;;5038648;28;20018;-77
2023/06/02 06:25:10;;;;;;;0.70;0.52;;;;;;;;;;5033694;28;20029;-77
2023/06/02 06:27:36;;;;;;;2.20;0.75;;;;;;;;;;5032284;28;20028;-78
2023/06/02 06:30:02;;;;;;;0.82;0.82;;;;;;;;;;5034432;28;20054;-77
2023/06/02 06:32:29;;;;;;;3.95;0.70;;;;;;;;;;5032052;28;20064;-77
2023/06/02 06:34:55;;;;;;;1.38;0.60;;;;;;;;;;5040420;28;20037;-76
2023/06/02 06:37:21;;;;;;;0.55;0.50;;;;;;;;;;5037802;28;20433;-76
2023/06/02 06:39:47;;;;;;;2.20;0.70;;;;;;;;;;5047216;28;20074;-76
2023/06/02 06:42:13;;;;;;;1.17;0.70;;;;;;;;;;5034615;28;20029;-76
2023/06/02 06:44:39;;;;;;;1.38;1.13;;;;;;;;;;5045297;28;20031;-77
2023/06/02 06:47:05;;;;;;;2.00;1.13;;;;;;;;;;5044908;28;20028;-76
2023/06/02 06:49:31;;;;;;;0.77;0.75;;;;;;;;;;5041888;28;20037;-80
2023/06/02 06:52:01;;;;;;;1.30;0.52;;;;;;;;;;5045880;28;20024;-80
2023/06/02 06:54:27;;;;;;;6.93;1.48;;;;;;;;;;5048214;28;20613;-80
2023/06/02 06:56:53;;;;;;;1.25;0.70;;;;;;;;;;5051251;28;20083;-81
2023/06/02 06:59:19;;;;;;;2.88;0.93;;;;;;;;;;5050520;28;20029;-82
2023/06/02 07:01:45;;;;;;;4.90;1.30;;;;;;;;;;5049236;28;20462;-80
2023/06/02 07:04:11;;;;;;;7.97;1.60;;;;;;;;;;5050535;28;20025;-77
2023/06/02 07:06:37;;;;;;;2.58;0.70;;;;;;;;;;5050364;28;20423;-77
2023/06/02 07:09:04;;;;;;;3.50;0.90;;;;;;;;;;5049168;28;20021;-77
2023/06/02 07:11:30;;;;;;;0.73;0.70;;;;;;;;;;5047196;28;20021;-77
2023/06/02 07:13:56;;;;;;;0.88;0.82;;;;;;;;;;5051092;28;20071;-77
2023/06/02 07:16:22;;;;;;;0.50;0.50;;;;;;;;;;5050299;28;20033;-77
2023/06/02 07:18:48;;;;;;;1.08;0.60;;;;;;;;;;5050867;28;20475;-78
2023/06/02 07:21:17;;;;;;;1.10;0.73;;;;;;;;;;5042763;28;20309;-78
2023/06/02 07:23:43;;;;;;;2.55;1.30;;;;;;;;;;5051945;28;20055;-76
2023/06/02 07:26:09;;;;;;;1.67;0.90;;;;;;;;;;5053778;28;20024;-78
2023/06/02 07:28:34;;;;;;;0.88;0.65;;;;;;;;;;5041256;28;20046;-79
2023/06/02 07:31:00;;;;;;;2.92;1.30;;;;;;;;;;5055310;28;20091;-79
2023/06/02 07:33:32;;;;;;;1.13;0.70;;;;;;;;;;5048166;28;20029;-80
2023/06/02 07:35:58;;;;;;;;;;;;;;;;;;5052483;28;20075;-79
2023/06/02 07:38:26;;;;;;;4.00;1.00;;;;;;;;;;5051392;28;19912;-80
2023/06/02 07:40:52;;;;;;;5.05;0.90;;;;;;;;;;5051754;28;20052;-82
2023/06/02 07:43:18;;;;;;;1.10;1.00;;;;;;;;;;5053522;28;20060;-80
2023/06/02 07:45:44;;;;;;;3.38;1.17;;;;;;;;;;5053768;28;20017;-79
2023/06/02 07:48:10;;;;;;;0.60;0.60;;;;;;;;;;5053901;28;20097;-80
2023/06/02 07:50:36;;;;;;;5.05;1.33;;;;;;;;;;5056897;28;20121;-80
2023/06/02 07:53:03;;;;;;;2.72;1.17;;;;;;;;;;5047893;28;20466;-78
2023/06/02 07:55:29;;;;;;;0.98;0.70;;;;;;;;;;5047769;28;20048;-75
2023/06/02 07:57:54;;;;;;;2.22;1.10;;;;;;;;;;5048707;28;20715;-76
2023/06/02 08:00:24;;;;;;;1.10;0.93;;;;;;;;;;5048969;28;20063;-77
2023/06/02 08:02:50;;;;;;;3.17;0.93;;;;;;;;;;5048966;28;20361;-77
2023/06/02 08:05:17;;;;;;;1.95;0.75;;;;;;;;;;5045603;28;20411;-75
2023/06/02 08:07:43;;;;;;;2.90;1.15;;;;;;;;;;5049731;28;20043;-76
2023/06/02 08:10:10;;;;;;;4.53;1.33;;;;;;;;;;5049708;28;20025;-76
2023/06/02 08:12:36;;;;;;;1.80;1.00;;;;;;;;;;5048902;28;20021;-78
2023/06/02 08:15:02;;;;;;;1.02;0.90;;;;;;;;;;5047237;28;20024;-79
2023/06/02 08:17:31;;;;;;;1.95;1.42;;;;;;;;;;5049528;28;20048;-78
2023/06/02 08:19:58;;;;;;;1.27;1.15;;;;;;;;;;5043897;28;20021;-79
2023/06/02 08:22:27;;;;;;;3.30;1.08;;;;;;;;;;5050572;28;20025;-77
2023/06/02 08:24:53;;;;;;;1.00;0.90;;;;;;;;;;5048037;28;20024;-81
2023/06/02 08:27:20;;;;;;;1.05;0.95;;;;;;;;;;5060481;28;20103;-76
2023/06/02 08:29:46;;;;;;;2.15;0.73;;;;;;;;;;5069480;28;20021;-73
2023/06/02 08:32:12;;;;;;;2.03;0.88;;;;;;;;;;5065838;28;20020;-75
2023/06/02 08:34:41;;;;;;;4.15;1.00;;;;;;;;;;5051976;28;20032;-77
2023/06/02 08:37:17;;;;;;;0.60;0.60;;;;;;;;;;5058304;28;20039;-76
2023/06/02 08:39:44;;;;;;;1.08;0.90;;;;;;;;;;5071116;28;20040;-77
2023/06/02 08:42:10;;;;;;;1.63;1.05;;;;;;;;;;5070312;28;20029;-77
2023/06/02 08:44:37;;;;;;;2.70;0.90;;;;;;;;;;5070802;28;20062;-77
2023/06/02 08:47:03;;;;;;;1.08;0.90;;;;;;;;;;5046885;28;20021;-78
2023/06/02 08:49:30;;;;;;;1.55;1.13;;;;;;;;;;5050361;28;20033;-78
2023/06/02 08:52:00;;;;;;;3.17;1.00;;;;;;;;;;5050670;28;20053;-77
2023/06/02 08:54:30;;;;;;;1.10;0.75;;;;;;;;;;5048005;28;20098;-77
2023/06/02 08:57:00;;;;;;;1.00;0.90;;;;;;;;;;5050641;28;20028;-78
2023/06/02 08:59:26;;;;;;;5.65;0.65;;;;;;;;;;5050132;28;20478;-77
2023/06/02 09:01:52;;;;;;;0.60;0.60;;;;;;;;;;5050063;28;20032;-77
2023/06/02 09:04:18;;;;;;;1.55;1.10;;;;;;;;;;5038830;28;20036;-77
2023/06/02 09:06:50;;;;;;;2.08;1.10;;;;;;;;;;5049091;28;20053;-77
2023/06/02 09:09:16;;;;;;;1.45;0.90;;;;;;;;;;5062194;28;20032;-77
2023/06/02 09:11:59;;;;;;;0.98;0.60;;;;;;;;;;5039827;28;20021;-78
2023/06/02 09:14:28;;;;;;;0.90;0.73;;;;;;;;;;5046825;28;20052;-77
2023/06/02 09:16:57;;;;;;;0.47;0.47;;;;;;;;;;5050159;28;20025;-77
2023/06/02 09:19:23;;;;;;;1.25;1.15;;;;;;;;;;5065685;28;20035;-77
2023/06/02 09:21:49;;;;;;;1.17;0.85;;;;;;;;;;5038771;28;20036;-77
2023/06/02 09:24:30;;;;;;;0.82;0.82;;;;;;;;;;5060201;28;20029;-77
2023/06/02 09:26:56;;;;;;;0.93;0.65;;;;;;;;;;5040850;28;20029;-77
2023/06/02 09:29:22;;;;;;;1.05;0.80;;;;;;;;;;5049911;28;20403;-76
2023/06/02 09:31:51;;;;;;;1.67;0.75;;;;;;;;;;5049984;28;20037;-77
2023/06/02 09:34:17;;;;;;;0.82;0.68;;;;;;;;;;5039789;28;20514;-76
2023/06/02 09:36:45;;;;;;;0.70;0.60;;;;;;;;;;5040444;28;20032;-76
2023/06/02 09:39:11;;;;;;;3.42;0.93;;;;;;;;;;5057767;28;20021;-76
2023/06/02 09:41:38;;;;;;;2.63;0.90;;;;;;;;;;5050640;28;20040;-77
2023/06/02 09:44:11;;;;;;;2.15;1.10;;;;;;;;;;5052451;28;20028;-76
2023/06/02 09:46:41;;;;;;;0.50;0.50;;;;;;;;;;5039486;28;20037;-76
2023/06/02 09:49:07;;;;;;;1.80;0.60;;;;;;;;;;5053731;28;20051;-76
2023/06/02 09:51:35;;;;;;;2.05;1.20;;;;;;;;;;5046384;28;20541;-75
2023/06/02 09:54:01;;;;;;;0.93;0.70;;;;;;;;;;5049925;28;20025;-75
2023/06/02 09:56:29;;;;;;;0.80;0.70;;;;;;;;;;5043142;28;20047;-75
2023/06/02 09:58:55;;;;;;;0.85;0.75;;;;;;;;;;5055537;28;20025;-75
2023/06/02 10:01:22;;;;;;;0.50;0.50;;;;;;;;;;5052476;28;20383;-75
2023/06/02 10:03:50;;;;;;;1.75;0.80;;;;;;;;;;5055939;28;20029;-75
2023/06/02 10:06:31;;;;;;;1.50;0.80;;;;;;;;;;5038080;28;20049;-75
2023/06/02 10:09:06;;;;;;;1.13;0.70;;;;;;;;;;5043971;28;20948;-75
2023/06/02 10:11:45;;;;;;;1.88;0.40;;;;;;;;;;5047558;28;20048;-75
2023/06/02 10:14:30;;;;;;;1.13;1.02;;;;;;;;;;5045600;28;20619;-75
2023/06/02 10:17:07;;;;;;;0.57;0.57;;;;;;;;;;5049094;28;20495;-75
2023/06/02 10:19:44;;;;;;;1.02;0.50;;;;;;;;;;5039332;28;20037;-75
2023/06/02 10:22:29;;;;;;;1.27;0.70;;;;;;;;;;5045636;28;20032;-75
2023/06/02 10:25:04;;;;;;;0.55;0.55;;;;;;;;;;5048715;28;20027;-75
2023/06/02 10:27:31;;;;;;;0.60;0.52;;;;;;;;;;5048721;28;20108;-74
2023/06/02 10:29:58;;;;;;;0.40;0.40;;;;;;;;;;5035020;28;20038;-74
2023/06/02 10:32:27;;;;;;;1.58;0.80;;;;;;;;;;5042672;28;20033;-76
2023/06/02 10:34:57;;;;;;;1.42;0.40;;;;;;;;;;5042203;28;20030;-75
2023/06/02 10:37:23;;;;;;;1.38;0.60;;;;;;;;;;5048670;28;20033;-76
2023/06/02 10:39:52;;;;;;;0.63;0.50;;;;;;;;;;5048631;28;20108;-75
2023/06/02 10:42:19;;;;;;;0.57;0.57;;;;;;;;;;5045544;28;20504;-76
2023/06/02 10:44:47;;;;;;;0.30;0.30;;;;;;;;;;5048796;28;20025;-76
2023/06/02 10:47:19;;;;;;;0.68;0.50;;;;;;;;;;5048218;28;20032;-75
2023/06/02 10:49:54;;;;;;;0.93;0.50;;;;;;;;;;5065321;28;20050;-75
2023/06/02 10:52:21;;;;;;;0.57;0.40;;;;;;;;;;5048646;28;20056;-75
2023/06/02 10:55:09;;;;;;;0.30;0.30;;;;;;;;;;5043272;28;20025;-75
2023/06/02 10:57:51;;;;;;;0.77;0.75;;;;;;;;;;5039496;28;20110;-72
2023/06/02 11:00:32;;;;;;;0.60;0.60;;;;;;;;;;5048335;28;20021;-73
2023/06/02 11:02:59;;;;;;;0.30;0.30;;;;;;;;;;5038563;28;20085;-75
2023/06/02 11:05:26;;;;;;;0.73;0.73;;;;;;;;;;5039870;28;20079;-75
2023/06/02 11:08:18;;;;;;;0.63;0.40;;;;;;;;;;5051443;28;20443;-74
2023/06/02 11:10:49;;;;;;;0.80;0.80;;;;;;;;;;5034253;28;20021;-73
2023/06/02 11:13:15;;;;;;;0.43;0.40;;;;;;;;;;5040415;28;20096;-74
2023/06/02 11:15:59;;;;;;;0.60;0.60;;;;;;;;;;5044319;28;20480;-74
2023/06/02 11:18:27;;;;;;;0.52;0.52;;;;;;;;;;5038022;28;20115;-74
2023/06/02 11:20:54;;;;;;;2.10;0.63;;;;;;;;;;5037547;28;20032;-74
2023/06/02 11:23:21;;;;;;;0.60;0.57;;;;;;;;;;5059473;28;20075;-75
2023/06/02 11:25:47;;;;;;;0.50;0.50;;;;;;;;;;5063753;28;20048;-74
2023/06/02 11:28:21;;;;;;;1.02;0.60;;;;;;;;;;5051717;28;20021;-75
2023/06/02 11:30:47;;;;;;;0.60;0.50;;;;;;;;;;5047965;28;20105;-75
2023/06/02 11:33:14;;;;;;;0.35;0.35;;;;;;;;;;5044007;28;20036;-74
2023/06/02 11:35:40;;;;;;;1.10;0.65;;;;;;;;;;5048820;28;20377;-73
2023/06/02 11:38:11;;;;;;;0.88;0.50;;;;;;;;;;5051215;28;20108;-74
2023/06/02 11:40:37;;;;;;;0.20;0.20;;;;;;;;;;5045186;28;20040;-72
2023/06/02 11:43:03;;;;;;;3.60;0.40;;;;;;;;;;5044131;28;20273;-73
2023/06/02 11:45:30;;;;;;;0.88;0.52;;;;;;;;;;5047158;28;20497;-73
2023/06/02 11:48:08;;;;;;;0.55;0.52;;;;;;;;;;5048180;28;20017;-74
2023/06/02 11:50:35;;;;;;;0.95;0.70;;;;;;;;;;5054075;28;20022;-74
2023/06/02 11:53:01;;;;;;;0.40;0.40;;;;;;;;;;5043714;28;20120;-74
2023/06/02 11:55:31;;;;;;;1.50;0.98;;;;;;;;;;5037568;28;20036;-74
2023/06/02 11:58:16;;;;;;;0.68;0.40;;;;;;;;;;5048500;28;20521;-74
2023/06/02 12:00:42;;;;;;;0.70;0.50;;;;;;;;;;5042318;28;20069;-74
2023/06/02 12:03:09;;;;;;;0.93;0.70;;;;;;;;;;5038799;28;20448;-74
2023/06/02 12:05:35;;;;;;;1.80;0.70;;;;;;;;;;5032950;28;20047;-74
2023/06/02 12:08:31;;;;;;;1.98;1.10;;;;;;;;;;5041642;28;20024;-74
2023/06/02 12:10:57;;;;;;;1.55;0.70;;;;;;;;;;5023019;28;20559;-74
2023/06/02 12:13:27;;;;;;;1.02;0.70;;;;;;;;;;5033850;28;20575;-74
2023/06/02 12:15:56;;;;;;;1.02;0.90;;;;;;;;;;5040917;28;20025;-74
2023/06/02 12:18:32;;;;;;;2.28;0.52;;;;;;;;;;5048161;28;20056;-74
2023/06/02 12:20:59;;;;;;;0.50;0.50;;;;;;;;;;5041498;28;20079;-74
2023/06/02 12:23:41;;;;;;;0.95;0.60;;;;;;;;;;5050669;28;20480;-74
2023/06/02 12:26:07;;;;;;;1.15;0.68;;;;;;;;;;5050680;28;20454;-74
2023/06/02 12:28:33;;;;;;;0.70;0.70;;;;;;;;;;5056567;28;20030;-74
2023/06/02 12:30:59;;;;;;;1.20;0.75;;;;;;;;;;5040576;28;20400;-74
2023/06/02 12:33:25;;;;;;;0.95;0.63;;;;;;;;;;5047842;28;20040;-73
2023/06/02 12:35:51;;;;;;;0.63;0.52;;;;;;;;;;5039414;28;20561;-74
2023/06/02 12:38:17;;;;;;;1.20;0.60;;;;;;;;;;5050232;28;20387;-74
2023/06/02 12:40:43;;;;;;;1.15;0.40;;;;;;;;;;5044730;28;20025;-74
2023/06/02 12:43:09;;;;;;;0.50;0.50;;;;;;;;;;5049508;28;20044;-73
2023/06/02 12:45:35;;;;;;;1.20;0.70;;;;;;;;;;5047309;28;20013;-73
2023/06/02 12:48:02;;;;;;;1.33;0.70;;;;;;;;;;5044726;28;20051;-73
2023/06/02 12:50:29;;;;;;;0.30;0.30;;;;;;;;;;5047079;28;20017;-73
2023/06/02 12:52:55;;;;;;;1.05;0.70;;;;;;;;;;5033067;28;20028;-73
2023/06/02 12:55:21;;;;;;;0.50;0.50;;;;;;;;;;5040328;28;20032;-74
2023/06/02 12:57:47;;;;;;;1.73;0.40;;;;;;;;;;5030897;28;20029;-74
2023/06/02 13:00:17;;;;;;;0.75;0.40;;;;;;;;;;5034751;28;20032;-74
2023/06/02 13:02:44;;;;;;;0.55;0.55;;;;;;;;;;5048694;28;20496;-73
2023/06/02 13:05:10;;;;;;;0.32;0.30;;;;;;;;;;5033091;28;21496;-73
2023/06/02 13:07:38;;;;;;;0.85;0.50;;;;;;;;;;5038499;28;20053;-74
2023/06/02 13:10:04;;;;;;;0.60;0.30;;;;;;;;;;5050842;28;20022;-74
2023/06/02 13:12:30;;;;;;;0.50;0.50;;;;;;;;;;5041705;28;20078;-73
2023/06/02 13:14:56;;;;;;;1.70;0.73;;;;;;;;;;5045384;28;20028;-74
2023/06/02 13:17:22;;;;;;;0.35;0.35;;;;;;;;;;5041034;28;20034;-72
2023/06/02 13:19:48;;;;;;;0.20;0.20;;;;;;;;;;5035616;28;20033;-73
2023/06/02 13:22:15;;;;;;;0.20;0.20;;;;;;;;;;5045203;28;20476;-73
2023/06/02 13:24:41;;;;;;;1.65;0.40;;;;;;;;;;5043124;28;20033;-73
2023/06/02 13:27:07;;;;;;;0.40;0.40;;;;;;;;;;5044810;28;20036;-73
2023/06/02 13:29:33;;;;;;;1.25;0.38;;;;;;;;;;5036942;28;20029;-73
2023/06/02 13:31:59;;;;;;;0.30;0.30;;;;;;;;;;5039989;28;20017;-73
2023/06/02 13:34:25;;;;;;;0.30;0.30;;;;;;;;;;5043581;28;20629;-73
2023/06/02 13:36:51;;;;;;;0.63;0.40;;;;;;;;;;5045552;28;20139;-73
2023/06/02 13:39:17;;;;;;;0.28;0.20;;;;;;;;;;5041133;28;20507;-75
2023/06/02 13:41:43;;;;;;;0.22;0.22;;;;;;;;;;5038620;28;20029;-74
2023/06/02 13:44:11;;;;;;;0.20;0.20;;;;;;;;;;5041897;28;20078;-73
2023/06/02 13:46:41;;;;;;;0.40;0.40;;;;;;;;;;5042147;28;20507;-73
2023/06/02 13:49:07;;;;;;;0.38;0.28;;;;;;;;;;5037085;28;20168;-73
2023/06/02 13:51:33;;;;;;;0.40;0.40;;;;;;;;;;5034949;28;20690;-72
2023/06/02 13:53:59;;;;;;;0.20;0.20;;;;;;;;;;5041316;28;20041;-74
2023/06/02 13:56:27;;;;;;;0.65;0.30;;;;;;;;;;5040893;28;20040;-73
2023/06/02 13:58:53;;;;;;;0.20;0.20;;;;;;;;;;5045849;28;20025;-73
2023/06/02 14:01:19;;;;;;;0.30;0.30;;;;;;;;;;5036364;28;20021;-74
2023/06/02 14:03:47;;;;;;;0.25;0.20;;;;;;;;;;5037214;28;20025;-73
2023/06/02 14:06:16;;;;;;;0.30;0.30;;;;;;;;;;5044609;28;20504;-73
2023/06/02 14:08:42;;;;;;;0.55;0.40;;;;;;;;;;5041346;28;20041;-72
2023/06/02 14:11:10;;;;;;;0.45;0.32;;;;;;;;;;5037784;28;20103;-73
2023/06/02 14:13:36;;;;;;;0.55;0.40;;;;;;;;;;5028363;28;20124;-73
2023/06/02 14:16:05;;;;;;;0.65;0.22;;;;;;;;;;5037751;28;20108;-73
2023/06/02 14:18:31;;;;;;;1.38;0.95;;;;;;;;;;5031499;28;20152;-74
2023/06/02 14:20:59;;;;;;;0.22;0.20;;;;;;;;;;5031996;28;20635;-74
2023/06/02 14:23:25;;;;;;;0.30;0.30;;;;;;;;;;5034157;28;20049;-74
2023/06/02 14:25:54;;;;;;;0.30;0.30;;;;;;;;;;5046066;28;20036;-75
2023/06/02 14:28:20;;;;;;;0.10;0.10;;;;;;;;;;5033913;28;20032;-74
2023/06/02 14:30:46;;;;;;;0.30;0.30;;;;;;;;;;5037189;28;20396;-74
2023/06/02 14:33:12;;;;;;;0.25;0.15;;;;;;;;;;5038620;28;20029;-75
2023/06/02 14:35:38;;;;;;;0.52;0.30;;;;;;;;;;5039637;28;20059;-73
2023/06/02 14:38:04;;;;;;;1.55;0.47;;;;;;;;;;5032062;28;20385;-71
2023/06/02 14:40:30;;;;;;;0.28;0.28;;;;;;;;;;5035378;28;20022;-74
2023/06/02 14:42:56;;;;;;;0.17;0.17;;;;;;;;;;5037506;28;20029;-74
2023/06/02 14:45:22;;;;;;;0.10;0.10;;;;;;;;;;5023835;28;20037;-74